Overview Statistics Trail Chart Weather Telemetry Raw packets
 

This is the latest recevied weather packets stored in our database for station/object OK1FET-14. If no packets are shown the sender has not sent any weather packets the latest 10 day(s).

<< 54 55 56 57 58 59 60 >>
Time Temp. Humidity Pressure Rain* Wind** Luminosity Snow
1788605556 17.78° C 54% 1021.2 hPa - - - -
1788605276 17.78° C 56% 1021.5 hPa - - - -
1788605276 17.78° C 56% 1021.5 hPa - - - -
1788605276 17.78° C 56% 1021.5 hPa - - - -
1788604995 18.33° C 55% 1021.4 hPa - - - -
1788604995 18.33° C 55% 1021.4 hPa - - - -
1788604995 18.33° C 55% 1021.4 hPa - - - -
1788604995 18.33° C 55% 1021.4 hPa - - - -
1788604715 17.78° C 57% 1021.4 hPa - - - -
1788604714 17.78° C 57% 1021.4 hPa - - - -
1788604714 17.78° C 57% 1021.4 hPa - - - -
1788604434 18.89° C 55% 1021.4 hPa - - - -
1788604434 18.89° C 55% 1021.4 hPa - - - -
1788604434 18.89° C 55% 1021.4 hPa - - - -
1788604153 18.89° C 56% 1021.3 hPa - - - -
1788604153 18.89° C 56% 1021.3 hPa - - - -
1788604153 18.89° C 56% 1021.3 hPa - - - -
1788603872 17.78° C 57% 1021.3 hPa - - - -
1788603872 17.78° C 57% 1021.3 hPa - - - -
1788603592 18.33° C 56% 1021.4 hPa - - - -
1788603592 18.33° C 56% 1021.4 hPa - - - -
1788603311 18.33° C 53% 1021.3 hPa - - - -
1788603311 18.33° C 53% 1021.3 hPa - - - -
1788603311 18.33° C 53% 1021.3 hPa - - - -
1788603049 18.89° C 53% 1021.3 hPa - - - -

* Rain since midnight (hover to see other rain measurements)
** Current wind speed in m/s (hover to see current wind gust speed)